Ευχαριστούμε που συμβάλλετε στη διατήρηση της σελίδας μας.

Thank you for your donations, it really helps to maintain the page.

Meteo Stats And More

Meteo Stats And More






Fire Weather Index (FWI)

Romanos Cam more information Romanos Cam


Istioploikos Omilos Patras more information Istioploikos Omilos Patras


Thunder radar more information blitzortung!


Rain radar more information rain snow radar



Thunderstorms From: 20-06-2018 12:00 Until: 20:00 warning for: Thunderstorms Level: Yellow info button

Nearby METAR Reports

  
LGRX - Araxos (civ/Afb), Greece
Distance from station: WSW 30km
Updated: 20-06-2018 19:20
Few Clouds
Few Clouds  
 Wind from NNE
Wind: NNE 20 km/h
Temperature:  30°C
Dew Point:  11°C
Humidity:  31%
Barometer:  1014 hPa
Clouds:  Few Clouds
Visibility:  10 km
Cloud details:  Few Clouds 610 m
2018/06/20 16:20 LGRX 201620Z 03011KT 9999 FEW020 30/11 Q1014
LGAD - Andravida (civ/A, Greece
Distance from station: SW 55km
Updated: 20-06-2018 19:20
Partly Cloudy
Partly Cloudy  
 Wind from N
Wind: N 22 km/h
Temperature:  30°C
Dew Point:  8°C
Humidity:  25%
Barometer:  1013 hPa
Clouds:  Partly Cloudy
Visibility:  10 km
Cloud details:  Partly Cloudy 610 m
2018/06/20 16:20 LGAD 201620Z 01012KT 9999 SCT020 30/08 Q1013
LGZA - Zakinthos Airpor, Greece
Distance from station: SW 95km
Updated: 20-06-2018 19:20
Partly Cloudy
Partly Cloudy  
 Wind from varies
Wind: varies 6 km/h
Temperature:  30°C
Heat Index:  33°C
Dew Point:  21°C
Humidity:  59%
Barometer:  1014 hPa
Clouds:  Partly Cloudy
Visibility:  10 km
Cloud details:  Few Clouds 914 m
Partly Cloudy 2134 m
2018/06/20 16:20 LGZA 201620Z VRB03KT 9999 FEW030 SCT070 30/21 Q1014
LGKF - Kefallinia, Greece
Distance from station: W 110km
Updated: 20-06-2018 18:50
Few Clouds
Few Clouds  
 Wind from WNW
Wind: WNW 11 km/h
Temperature:  28°C
Heat Index:  29°C
Dew Point:  20°C
Humidity:  62%
Barometer:  1015 hPa
Clouds:  Few Clouds
Visibility:  10 km
Cloud details:  Few Clouds 549 m
2018/06/20 15:50 LGKF 201550Z 29006KT 9999 FEW018 28/20 Q1015
LGPZ - Preveza/Aktion, Greece
Distance from station: NW 114km
Updated: 20-06-2018 19:20
Partly Cloudy
Partly Cloudy  
 Wind from NNE
Wind: NNE 9 km/h
Temperature:  31°C
Heat Index:  37°C
Dew Point:  24°C
Humidity:  66%
Barometer:  1016 hPa
Clouds:  Partly Cloudy
Visibility:  10 km
Cloud details:  Few Clouds 762 m
Partly Cloudy 1829 m
2018/06/20 16:20 LGPZ 201620Z 02005KT 9999 FEW025 SCT060 31/24 Q1016
LGKL - Kalamata (hel-Af, Greece
Distance from station: S 132km
Updated: 20-06-2018 19:20
Partly Cloudy
Partly Cloudy  
 Wind from calm
Wind: Calm
Temperature:  23°C
Dew Point:  18°C
Humidity:  74%
Barometer:  1015 hPa
Clouds:  Partly Cloudy
Visibility:  10 km
Cloud details:  Partly Cloudy 762 m
Partly Cloudy 1219 m
2018/06/20 16:20 LGKL 201620Z 00000KT 9999 SCT025 SCT040 23/18 Q1015
LGBL - Nea Anchialos, Greece
Distance from station: NE 142km
Updated: 20-06-2018 19:20
Partly Cloudy
Partly Cloudy  
 Wind from SSE
Wind: SSE 9 km/h
Temperature:  30°C
Dew Point:  6°C
Humidity:  22%
Barometer:  1015 hPa
Clouds:  Partly Cloudy
Visibility:  10 km
Cloud details:  Few Clouds 914 m
Partly Cloudy 2438 m
2018/06/20 16:20 LGBL 201620Z 15005KT 9999 FEW030 SCT080 30/06 Q1015
LGEL - Elefsis (hel-Afb, Greece
Distance from station: E 158km
Updated: 20-06-2018 19:20
Few Clouds
Few Clouds  
 Wind from N
Wind: N 19 km/h
Temperature:  29°C
Dew Point:  9°C
Humidity:  29%
Barometer:  1014 hPa
Clouds:  Few Clouds
Visibility:  10 km
Cloud details:  Few Clouds 762 m
2018/06/20 16:20 LGEL 201620Z 36010KT 9999 FEW025 29/09 Q1014
LGIO - Ioannina, Greece
Distance from station: NNW 181km
Updated: 20-06-2018 19:20
Partly Cloudy
Partly Cloudy  
 Wind from varies
Wind: varies 0 km/h
Temperature:  25°C
Dew Point:  12°C
Humidity:  44%
Barometer:  1017 hPa
Clouds:  Partly Cloudy
Visibility:  10 km
Cloud details:  Few Clouds 914 m
Partly Cloudy 1829 m
2018/06/20 16:20 LGIO 201620Z /////KT 9999 FEW030 SCT060 25/12 Q1017
LGSK - Skiathos Island, Greece
Distance from station: NE 185km
Updated: 20-06-2018 18:50
Clear
Clear  
 Wind from N
Wind: N 7 km/h
Temperature:  29°C
Dew Point:  12°C
Humidity:  35%
Barometer:  1015 hPa
Summary:  Clear
Visibility:  greater than 10 km
2018/06/20 15:50 LGSK 201550Z 35004KT CAVOK 29/12 Q1015
LGAV - Athens/Elef-Ven, Greece
Distance from station: E 195km
Updated: 20-06-2018 19:20
Partly Cloudy
Partly Cloudy  
 Wind from NNE
Wind: NNE 26 km/h
Temperature:  29°C
Dew Point:  8°C
Humidity:  27%
Barometer:  1015 hPa
Clouds:  Partly Cloudy
Visibility:  10 km
Cloud details:  Partly Cloudy 2134 m
2018/06/20 16:20 LGAV 201620Z 03014KT 9999 SCT070 29/08 Q1015 NOSIG
LGKR - Ioannis Kapodist, Greece
Distance from station: NW 221km
Updated: 20-06-2018 19:20
Mostly Cloudy
Mostly Cloudy  
 Wind from WNW
Wind: WNW 9 km/h
Temperature:  26°C
Dew Point:  19°C
Humidity:  65%
Barometer:  1015 hPa
Clouds:  Mostly Cloudy
Visibility:  10 km
Cloud details:  Partly Cloudy 549 m
Few Clouds 610 m
Partly Cloudy 762 m
Mostly Cloudy 2438 m
2018/06/20 16:20 LGKR 201620Z 29005KT 9999 SCT018 FEW020TCU SCT025 BKN080 26/19 Q1015 NOSIG

Script developed by  Saratoga-weather.org Adapted for the template by  Weerstation Leuven

You find our weather info also at:


European Weather Network

WeatherCloud

Weather Underground

Hellas Meteo Network

AWEKAS

HAMweather, WeatherForYou, PWS Weather